sensor_id;sensor_type;location;lat;lon;timestamp;P1;durP1;ratioP1;P2;durP2;ratioP2
13319;SDS011;59599;47.608;12.190;2022-12-18T05:01:43;9.57;;;7.10;;
13319;SDS011;59599;47.608;12.190;2022-12-18T05:04:10;12.43;;;8.30;;
13319;SDS011;59599;47.608;12.190;2022-12-18T05:06:36;12.77;;;8.40;;
13319;SDS011;59599;47.608;12.190;2022-12-18T05:09:02;11.50;;;7.90;;
13319;SDS011;59599;47.608;12.190;2022-12-18T05:11:28;12.93;;;8.43;;
13319;SDS011;59599;47.608;12.190;2022-12-18T05:13:54;8.53;;;5.80;;
13319;SDS011;59599;47.608;12.190;2022-12-18T05:16:20;8.97;;;6.70;;
13319;SDS011;59599;47.608;12.190;2022-12-18T05:18:46;8.50;;;6.10;;
13319;SDS011;59599;47.608;12.190;2022-12-18T05:21:12;12.13;;;8.33;;
13319;SDS011;59599;47.608;12.190;2022-12-18T05:23:38;8.47;;;5.83;;
13319;SDS011;59599;47.608;12.190;2022-12-18T05:26:04;6.67;;;5.07;;
13319;SDS011;59599;47.608;12.190;2022-12-18T05:28:32;8.43;;;6.00;;
13319;SDS011;59599;47.608;12.190;2022-12-18T05:31:00;7.60;;;5.30;;
13319;SDS011;59599;47.608;12.190;2022-12-18T05:33:28;11.30;;;7.93;;
13319;SDS011;59599;47.608;12.190;2022-12-18T05:35:57;13.17;;;8.87;;
13319;SDS011;59599;47.608;12.190;2022-12-18T05:38:27;13.77;;;8.77;;
13319;SDS011;59599;47.608;12.190;2022-12-18T05:40:54;13.53;;;8.33;;
13319;SDS011;59599;47.608;12.190;2022-12-18T05:43:20;12.63;;;8.47;;
13319;SDS011;59599;47.608;12.190;2022-12-18T05:45:47;11.10;;;7.23;;
13319;SDS011;59599;47.608;12.190;2022-12-18T05:48:13;12.53;;;7.10;;
13319;SDS011;59599;47.608;12.190;2022-12-18T05:50:40;10.37;;;7.27;;
13319;SDS011;59599;47.608;12.190;2022-12-18T05:53:06;12.57;;;7.73;;
13319;SDS011;59599;47.608;12.190;2022-12-18T05:55:33;11.40;;;8.27;;
13319;SDS011;59599;47.608;12.190;2022-12-18T05:57:59;12.03;;;7.60;;
13319;SDS011;59599;47.608;12.190;2022-12-18T06:00:25;14.90;;;8.80;;
13319;SDS011;59599;47.608;12.190;2022-12-18T06:02:51;10.80;;;8.10;;
13319;SDS011;59599;47.608;12.190;2022-12-18T06:05:17;9.60;;;6.40;;
13319;SDS011;59599;47.608;12.190;2022-12-18T06:07:43;9.33;;;6.13;;
13319;SDS011;59599;47.608;12.190;2022-12-18T06:10:09;11.17;;;7.13;;
13319;SDS011;59599;47.608;12.190;2022-12-18T06:12:35;12.13;;;6.53;;
13319;SDS011;59599;47.608;12.190;2022-12-18T06:15:00;10.10;;;6.33;;
13319;SDS011;59599;47.608;12.190;2022-12-18T06:17:33;12.67;;;6.80;;
13319;SDS011;59599;47.608;12.190;2022-12-18T06:19:59;20.40;;;10.90;;
13319;SDS011;59599;47.608;12.190;2022-12-18T06:22:25;10.77;;;7.40;;
13319;SDS011;59599;47.608;12.190;2022-12-18T06:24:51;12.00;;;7.07;;
13319;SDS011;59599;47.608;12.190;2022-12-18T06:27:17;8.80;;;6.07;;
13319;SDS011;59599;47.608;12.190;2022-12-18T06:29:42;8.20;;;5.90;;
13319;SDS011;59599;47.608;12.190;2022-12-18T06:32:08;8.90;;;6.10;;
13319;SDS011;59599;47.608;12.190;2022-12-18T06:34:36;11.03;;;6.23;;
13319;SDS011;59599;47.608;12.190;2022-12-18T06:37:02;10.63;;;6.50;;
13319;SDS011;59599;47.608;12.190;2022-12-18T06:39:29;9.77;;;5.60;;
13319;SDS011;59599;47.608;12.190;2022-12-18T06:41:55;10.30;;;5.83;;
13319;SDS011;59599;47.608;12.190;2022-12-18T06:44:21;9.20;;;5.63;;
13319;SDS011;59599;47.608;12.190;2022-12-18T06:46:47;10.27;;;6.10;;
13319;SDS011;59599;47.608;12.190;2022-12-18T06:49:13;9.77;;;6.80;;
13319;SDS011;59599;47.608;12.190;2022-12-18T06:51:40;13.03;;;7.73;;
13319;SDS011;59599;47.608;12.190;2022-12-18T06:54:06;14.23;;;8.47;;
13319;SDS011;59599;47.608;12.190;2022-12-18T06:56:32;8.27;;;5.20;;
13319;SDS011;59599;47.608;12.190;2022-12-18T06:58:58;9.10;;;5.67;;
13319;SDS011;59599;47.608;12.190;2022-12-18T07:01:24;9.67;;;5.70;;
13319;SDS011;59599;47.608;12.190;2022-12-18T07:03:52;22.53;;;9.97;;
13319;SDS011;59599;47.608;12.190;2022-12-18T07:06:19;23.80;;;12.50;;
13319;SDS011;59599;47.608;12.190;2022-12-18T07:08:46;16.20;;;9.53;;
13319;SDS011;59599;47.608;12.190;2022-12-18T07:11:12;16.80;;;9.77;;
13319;SDS011;59599;47.608;12.190;2022-12-18T07:13:38;11.83;;;8.07;;
13319;SDS011;59599;47.608;12.190;2022-12-18T07:16:08;9.80;;;7.17;;
13319;SDS011;59599;47.608;12.190;2022-12-18T07:18:34;8.93;;;6.57;;
13319;SDS011;59599;47.608;12.190;2022-12-18T07:21:07;8.67;;;5.97;;
13319;SDS011;59599;47.608;12.190;2022-12-18T07:23:33;12.00;;;6.13;;
13319;SDS011;59599;47.608;12.190;2022-12-18T07:26:06;8.53;;;5.93;;
13319;SDS011;59599;47.608;12.190;2022-12-18T07:28:34;9.60;;;5.97;;
13319;SDS011;59599;47.608;12.190;2022-12-18T07:31:04;9.37;;;6.27;;
13319;SDS011;59599;47.608;12.190;2022-12-18T07:33:41;12.33;;;7.17;;
13319;SDS011;59599;47.608;12.190;2022-12-18T07:36:08;14.47;;;8.63;;
13319;SDS011;59599;47.608;12.190;2022-12-18T07:38:35;13.33;;;8.90;;
13319;SDS011;59599;47.608;12.190;2022-12-18T07:41:01;15.30;;;10.60;;
13319;SDS011;59599;47.608;12.190;2022-12-18T07:43:27;12.57;;;7.93;;
13319;SDS011;59599;47.608;12.190;2022-12-18T07:45:53;12.50;;;7.63;;
13319;SDS011;59599;47.608;12.190;2022-12-18T07:48:19;11.67;;;7.40;;
13319;SDS011;59599;47.608;12.190;2022-12-18T07:50:51;10.70;;;6.93;;
13319;SDS011;59599;47.608;12.190;2022-12-18T07:53:17;11.33;;;7.30;;
13319;SDS011;59599;47.608;12.190;2022-12-18T07:55:43;17.80;;;9.00;;
13319;SDS011;59599;47.608;12.190;2022-12-18T07:58:08;13.97;;;8.83;;
13319;SDS011;59599;47.608;12.190;2022-12-18T08:00:34;11.33;;;8.27;;
13319;SDS011;59599;47.608;12.190;2022-12-18T08:03:00;13.87;;;9.17;;
13319;SDS011;59599;47.608;12.190;2022-12-18T08:05:26;13.43;;;8.40;;
13319;SDS011;59599;47.608;12.190;2022-12-18T08:07:52;14.00;;;8.23;;
13319;SDS011;59599;47.608;12.190;2022-12-18T08:10:18;11.43;;;8.10;;
13319;SDS011;59599;47.608;12.190;2022-12-18T08:12:44;11.00;;;7.53;;
13319;SDS011;59599;47.608;12.190;2022-12-18T08:15:10;14.87;;;9.43;;
13319;SDS011;59599;47.608;12.190;2022-12-18T08:17:36;17.33;;;11.13;;
13319;SDS011;59599;47.608;12.190;2022-12-18T08:20:02;25.37;;;15.90;;
13319;SDS011;59599;47.608;12.190;2022-12-18T08:22:28;23.03;;;13.43;;
13319;SDS011;59599;47.608;12.190;2022-12-18T08:24:54;20.03;;;12.97;;
13319;SDS011;59599;47.608;12.190;2022-12-18T08:27:20;18.63;;;12.30;;
13319;SDS011;59599;47.608;12.190;2022-12-18T08:29:46;20.60;;;14.20;;
13319;SDS011;59599;47.608;12.190;2022-12-18T08:32:11;27.23;;;18.60;;
13319;SDS011;59599;47.608;12.190;2022-12-18T08:34:37;26.57;;;18.57;;
13319;SDS011;59599;47.608;12.190;2022-12-18T08:37:03;28.47;;;17.70;;
13319;SDS011;59599;47.608;12.190;2022-12-18T08:39:29;25.77;;;15.73;;
13319;SDS011;59599;47.608;12.190;2022-12-18T08:41:55;17.87;;;12.73;;
13319;SDS011;59599;47.608;12.190;2022-12-18T08:44:39;15.40;;;10.77;;
13319;SDS011;59599;47.608;12.190;2022-12-18T08:47:05;18.20;;;12.17;;
13319;SDS011;59599;47.608;12.190;2022-12-18T08:49:31;15.20;;;10.60;;
13319;SDS011;59599;47.608;12.190;2022-12-18T08:51:57;15.83;;;10.27;;
13319;SDS011;59599;47.608;12.190;2022-12-18T08:54:23;15.67;;;9.93;;
13319;SDS011;59599;47.608;12.190;2022-12-18T08:56:51;20.73;;;12.93;;
13319;SDS011;59599;47.608;12.190;2022-12-18T08:59:17;20.37;;;11.63;;
13319;SDS011;59599;47.608;12.190;2022-12-18T09:01:43;16.13;;;11.48;;
13319;SDS011;59599;47.608;12.190;2022-12-18T09:04:09;15.20;;;10.37;;
13319;SDS011;59599;47.608;12.190;2022-12-18T09:06:35;18.73;;;11.90;;
13319;SDS011;59599;47.608;12.190;2022-12-18T09:09:01;17.43;;;11.90;;
13319;SDS011;59599;47.608;12.190;2022-12-18T09:11:27;16.93;;;11.70;;
13319;SDS011;59599;47.608;12.190;2022-12-18T09:13:54;17.53;;;10.43;;
13319;SDS011;59599;47.608;12.190;2022-12-18T09:16:20;14.50;;;10.87;;
13319;SDS011;59599;47.608;12.190;2022-12-18T09:18:47;14.37;;;9.97;;
13319;SDS011;59599;47.608;12.190;2022-12-18T09:21:14;14.80;;;9.43;;
13319;SDS011;59599;47.608;12.190;2022-12-18T09:23:41;14.80;;;8.87;;
13319;SDS011;59599;47.608;12.190;2022-12-18T09:26:07;13.23;;;9.47;;
13319;SDS011;59599;47.608;12.190;2022-12-18T09:28:33;15.23;;;10.70;;
13319;SDS011;59599;47.608;12.190;2022-12-18T09:31:03;15.07;;;10.00;;
13319;SDS011;59599;47.608;12.190;2022-12-18T09:33:29;16.43;;;11.00;;
13319;SDS011;59599;47.608;12.190;2022-12-18T09:35:54;18.77;;;10.83;;
13319;SDS011;59599;47.608;12.190;2022-12-18T09:38:20;13.50;;;10.20;;
13319;SDS011;59599;47.608;12.190;2022-12-18T09:40:48;16.13;;;10.47;;
13319;SDS011;59599;47.608;12.190;2022-12-18T09:43:18;14.03;;;9.33;;
13319;SDS011;59599;47.608;12.190;2022-12-18T09:45:53;18.47;;;11.87;;
13319;SDS011;59599;47.608;12.190;2022-12-18T09:48:27;11.13;;;6.87;;
13319;SDS011;59599;47.608;12.190;2022-12-18T09:50:57;11.47;;;7.77;;
13319;SDS011;59599;47.608;12.190;2022-12-18T09:53:24;10.63;;;7.03;;
13319;SDS011;59599;47.608;12.190;2022-12-18T09:55:52;10.50;;;5.87;;
13319;SDS011;59599;47.608;12.190;2022-12-18T09:58:30;9.13;;;5.47;;
13319;SDS011;59599;47.608;12.190;2022-12-18T10:01:00;14.60;;;7.53;;
13319;SDS011;59599;47.608;12.190;2022-12-18T10:03:26;15.07;;;7.23;;
13319;SDS011;59599;47.608;12.190;2022-12-18T10:11:03;9.33;;;6.67;;
13319;SDS011;59599;47.608;12.190;2022-12-18T10:13:42;9.40;;;6.80;;
13319;SDS011;59599;47.608;12.190;2022-12-18T10:16:23;11.17;;;7.77;;
13319;SDS011;59599;47.608;12.190;2022-12-18T10:21:23;8.17;;;6.23;;
13319;SDS011;59599;47.608;12.190;2022-12-18T10:23:58;9.77;;;5.87;;
13319;SDS011;59599;47.608;12.190;2022-12-18T10:26:38;8.17;;;5.83;;
13319;SDS011;59599;47.608;12.190;2022-12-18T10:29:08;7.63;;;5.47;;
13319;SDS011;59599;47.608;12.190;2022-12-18T10:31:37;8.07;;;5.00;;
13319;SDS011;59599;47.608;12.190;2022-12-18T10:34:03;9.87;;;6.53;;
13319;SDS011;59599;47.608;12.190;2022-12-18T10:36:28;8.63;;;5.93;;
13319;SDS011;59599;47.608;12.190;2022-12-18T10:38:58;6.77;;;5.97;;
13319;SDS011;59599;47.608;12.190;2022-12-18T10:41:40;12.70;;;8.70;;
13319;SDS011;59599;47.608;12.190;2022-12-18T10:44:10;13.37;;;9.20;;
13319;SDS011;59599;47.608;12.190;2022-12-18T10:46:40;14.57;;;9.67;;
13319;SDS011;59599;47.608;12.190;2022-12-18T10:49:07;10.10;;;6.83;;
13319;SDS011;59599;47.608;12.190;2022-12-18T10:51:44;12.50;;;8.37;;
13319;SDS011;59599;47.608;12.190;2022-12-18T10:54:17;17.10;;;9.70;;
13319;SDS011;59599;47.608;12.190;2022-12-18T10:56:47;14.97;;;9.43;;
13319;SDS011;59599;47.608;12.190;2022-12-18T10:59:14;9.63;;;7.23;;
13319;SDS011;59599;47.608;12.190;2022-12-18T11:01:51;8.57;;;6.60;;
13319;SDS011;59599;47.608;12.190;2022-12-18T11:04:23;9.97;;;7.17;;
13319;SDS011;59599;47.608;12.190;2022-12-18T11:09:20;8.97;;;6.37;;
13319;SDS011;59599;47.608;12.190;2022-12-18T11:11:58;5.20;;;4.40;;
13319;SDS011;59599;47.608;12.190;2022-12-18T11:16:52;9.80;;;5.80;;
13319;SDS011;59599;47.608;12.190;2022-12-18T11:19:26;5.87;;;4.40;;
13319;SDS011;59599;47.608;12.190;2022-12-18T11:21:58;5.43;;;4.10;;
13319;SDS011;59599;47.608;12.190;2022-12-18T11:26:59;11.27;;;4.47;;
13319;SDS011;59599;47.608;12.190;2022-12-18T11:29:37;6.23;;;4.40;;
13319;SDS011;59599;47.608;12.190;2022-12-18T11:34:59;14.70;;;7.07;;
13319;SDS011;59599;47.608;12.190;2022-12-18T11:37:54;7.47;;;4.73;;
13319;SDS011;59599;47.608;12.190;2022-12-18T11:40:30;9.33;;;4.37;;
13319;SDS011;59599;47.608;12.190;2022-12-18T11:45:30;8.97;;;7.23;;
13319;SDS011;59599;47.608;12.190;2022-12-18T11:50:51;12.70;;;11.10;;
13319;SDS011;59599;47.608;12.190;2022-12-18T11:53:21;6.23;;;4.73;;
13319;SDS011;59599;47.608;12.190;2022-12-18T12:01:22;9.30;;;5.10;;
13319;SDS011;59599;47.608;12.190;2022-12-18T12:04:08;9.07;;;4.60;;
13319;SDS011;59599;47.608;12.190;2022-12-18T12:06:56;6.30;;;4.43;;
13319;SDS011;59599;47.608;12.190;2022-12-18T12:09:38;8.57;;;4.43;;
13319;SDS011;59599;47.608;12.190;2022-12-18T12:15:13;14.27;;;6.10;;
13319;SDS011;59599;47.608;12.190;2022-12-18T12:20:49;7.43;;;4.07;;
13319;SDS011;59599;47.608;12.190;2022-12-18T12:32:04;16.83;;;7.30;;
13319;SDS011;59599;47.608;12.190;2022-12-18T12:40:22;3.40;;;2.70;;
13319;SDS011;59599;47.608;12.190;2022-12-18T12:42:52;11.00;;;4.10;;
13319;SDS011;59599;47.608;12.190;2022-12-18T12:54:02;7.60;;;4.20;;
13319;SDS011;59599;47.608;12.190;2022-12-18T12:56:39;3.77;;;2.93;;
13319;SDS011;59599;47.608;12.190;2022-12-18T13:01:59;9.43;;;3.70;;
13319;SDS011;59599;47.608;12.190;2022-12-18T13:04:36;9.70;;;3.97;;
13319;SDS011;59599;47.608;12.190;2022-12-18T13:18:04;10.53;;;4.93;;
13319;SDS011;59599;47.608;12.190;2022-12-18T13:20:41;8.30;;;4.40;;
13319;SDS011;59599;47.608;12.190;2022-12-18T13:30:58;13.60;;;5.83;;
13319;SDS011;59599;47.608;12.190;2022-12-18T13:35:53;3.37;;;2.70;;
13319;SDS011;59599;47.608;12.190;2022-12-18T13:43:57;8.63;;;4.13;;
13319;SDS011;59599;47.608;12.190;2022-12-18T13:46:42;4.70;;;3.30;;
13319;SDS011;59599;47.608;12.190;2022-12-18T13:51:42;5.77;;;3.80;;
13319;SDS011;59599;47.608;12.190;2022-12-18T13:54:19;5.50;;;3.97;;
13319;SDS011;59599;47.608;12.190;2022-12-18T13:56:49;8.13;;;4.60;;
13319;SDS011;59599;47.608;12.190;2022-12-18T14:01:47;14.53;;;9.20;;
13319;SDS011;59599;47.608;12.190;2022-12-18T14:04:22;15.63;;;9.00;;
13319;SDS011;59599;47.608;12.190;2022-12-18T14:06:57;8.67;;;5.70;;
13319;SDS011;59599;47.608;12.190;2022-12-18T14:09:35;5.57;;;4.87;;
13319;SDS011;59599;47.608;12.190;2022-12-18T14:12:05;8.93;;;6.37;;
13319;SDS011;59599;47.608;12.190;2022-12-18T14:14:50;7.33;;;5.00;;
13319;SDS011;59599;47.608;12.190;2022-12-18T14:17:17;5.97;;;5.17;;
13319;SDS011;59599;47.608;12.190;2022-12-18T14:19:44;9.03;;;5.90;;
13319;SDS011;59599;47.608;12.190;2022-12-18T14:22:19;5.83;;;3.93;;
13319;SDS011;59599;47.608;12.190;2022-12-18T14:25:05;4.23;;;3.33;;
13319;SDS011;59599;47.608;12.190;2022-12-18T14:27:49;7.17;;;4.00;;
13319;SDS011;59599;47.608;12.190;2022-12-18T14:35:33;4.77;;;3.93;;
13319;SDS011;59599;47.608;12.190;2022-12-18T14:40:41;5.30;;;3.83;;
13319;SDS011;59599;47.608;12.190;2022-12-18T14:43:11;6.97;;;4.50;;
13319;SDS011;59599;47.608;12.190;2022-12-18T14:45:37;6.60;;;4.70;;
13319;SDS011;59599;47.608;12.190;2022-12-18T14:48:16;7.07;;;5.27;;
13319;SDS011;59599;47.608;12.190;2022-12-18T14:50:44;8.87;;;6.50;;
13319;SDS011;59599;47.608;12.190;2022-12-18T14:53:19;6.73;;;5.60;;
13319;SDS011;59599;47.608;12.190;2022-12-18T14:55:48;7.33;;;5.77;;
13319;SDS011;59599;47.608;12.190;2022-12-18T14:58:15;8.47;;;5.93;;
13319;SDS011;59599;47.608;12.190;2022-12-18T15:00:42;6.93;;;5.47;;
13319;SDS011;59599;47.608;12.190;2022-12-18T15:03:08;9.67;;;7.07;;
13319;SDS011;59599;47.608;12.190;2022-12-18T15:05:34;9.70;;;6.63;;
13319;SDS011;59599;47.608;12.190;2022-12-18T15:08:00;9.00;;;6.70;;
13319;SDS011;59599;47.608;12.190;2022-12-18T15:10:33;12.60;;;8.10;;
13319;SDS011;59599;47.608;12.190;2022-12-18T15:17:58;15.77;;;10.47;;
13319;SDS011;59599;47.608;12.190;2022-12-18T15:20:25;10.80;;;7.27;;
13319;SDS011;59599;47.608;12.190;2022-12-18T15:22:50;6.53;;;5.77;;
13319;SDS011;59599;47.608;12.190;2022-12-18T15:25:54;6.63;;;5.60;;
13319;SDS011;59599;47.608;12.190;2022-12-18T15:31:24;11.83;;;6.23;;
13319;SDS011;59599;47.608;12.190;2022-12-18T15:36:37;11.10;;;5.87;;
13319;SDS011;59599;47.608;12.190;2022-12-18T15:39:03;8.43;;;5.77;;
13319;SDS011;59599;47.608;12.190;2022-12-18T15:41:30;7.67;;;5.13;;
13319;SDS011;59599;47.608;12.190;2022-12-18T15:44:00;8.30;;;6.67;;
13319;SDS011;59599;47.608;12.190;2022-12-18T15:46:26;12.87;;;7.43;;
13319;SDS011;59599;47.608;12.190;2022-12-18T15:48:56;16.47;;;11.33;;
13319;SDS011;59599;47.608;12.190;2022-12-18T15:51:34;16.30;;;9.07;;
13319;SDS011;59599;47.608;12.190;2022-12-18T15:54:02;15.53;;;9.70;;
13319;SDS011;59599;47.608;12.190;2022-12-18T15:56:30;14.83;;;9.37;;
13319;SDS011;59599;47.608;12.190;2022-12-18T15:59:16;16.13;;;9.17;;
13319;SDS011;59599;47.608;12.190;2022-12-18T16:01:44;14.17;;;8.80;;
13319;SDS011;59599;47.608;12.190;2022-12-18T16:04:11;10.37;;;7.27;;
13319;SDS011;59599;47.608;12.190;2022-12-18T16:06:38;11.23;;;8.07;;
13319;SDS011;59599;47.608;12.190;2022-12-18T16:09:04;10.23;;;7.37;;
13319;SDS011;59599;47.608;12.190;2022-12-18T16:11:31;16.80;;;11.97;;
13319;SDS011;59599;47.608;12.190;2022-12-18T16:16:31;21.53;;;14.87;;
13319;SDS011;59599;47.608;12.190;2022-12-18T16:18:57;24.50;;;15.50;;
13319;SDS011;59599;47.608;12.190;2022-12-18T16:21:22;21.23;;;14.00;;
13319;SDS011;59599;47.608;12.190;2022-12-18T16:23:48;22.67;;;14.27;;
13319;SDS011;59599;47.608;12.190;2022-12-18T16:26:14;21.37;;;15.10;;
13319;SDS011;59599;47.608;12.190;2022-12-18T16:28:40;19.37;;;13.90;;
13319;SDS011;59599;47.608;12.190;2022-12-18T16:31:06;19.70;;;13.77;;
13319;SDS011;59599;47.608;12.190;2022-12-18T16:33:35;21.90;;;14.37;;
13319;SDS011;59599;47.608;12.190;2022-12-18T16:36:01;23.10;;;14.40;;
13319;SDS011;59599;47.608;12.190;2022-12-18T16:38:26;19.97;;;12.97;;
13319;SDS011;59599;47.608;12.190;2022-12-18T16:40:52;19.53;;;12.47;;
13319;SDS011;59599;47.608;12.190;2022-12-18T16:43:37;16.33;;;11.20;;
13319;SDS011;59599;47.608;12.190;2022-12-18T16:46:03;18.07;;;12.40;;
13319;SDS011;59599;47.608;12.190;2022-12-18T16:48:30;20.47;;;11.67;;
13319;SDS011;59599;47.608;12.190;2022-12-18T16:51:00;14.57;;;10.37;;
13319;SDS011;59599;47.608;12.190;2022-12-18T16:53:27;13.10;;;9.20;;
13319;SDS011;59599;47.608;12.190;2022-12-18T16:55:56;8.83;;;6.90;;
13319;SDS011;59599;47.608;12.190;2022-12-18T16:58:21;10.57;;;6.67;;
13319;SDS011;59599;47.608;12.190;2022-12-18T17:00:47;9.20;;;6.13;;
13319;SDS011;59599;47.608;12.190;2022-12-18T17:03:13;9.57;;;6.77;;
13319;SDS011;59599;47.608;12.190;2022-12-18T17:05:39;12.17;;;8.70;;
13319;SDS011;59599;47.608;12.190;2022-12-18T17:08:05;13.03;;;9.27;;
13319;SDS011;59599;47.608;12.190;2022-12-18T17:10:33;10.70;;;7.93;;
13319;SDS011;59599;47.608;12.190;2022-12-18T17:12:59;11.57;;;8.23;;
13319;SDS011;59599;47.608;12.190;2022-12-18T17:15:25;11.87;;;8.47;;
13319;SDS011;59599;47.608;12.190;2022-12-18T17:17:51;12.10;;;7.83;;
13319;SDS011;59599;47.608;12.190;2022-12-18T17:20:17;33.40;;;19.83;;
13319;SDS011;59599;47.608;12.190;2022-12-18T17:22:43;16.33;;;11.13;;
13319;SDS011;59599;47.608;12.190;2022-12-18T17:25:09;11.70;;;7.87;;
13319;SDS011;59599;47.608;12.190;2022-12-18T17:27:34;12.33;;;7.83;;
13319;SDS011;59599;47.608;12.190;2022-12-18T17:30:00;12.90;;;8.77;;
13319;SDS011;59599;47.608;12.190;2022-12-18T17:32:26;13.33;;;8.70;;
13319;SDS011;59599;47.608;12.190;2022-12-18T17:34:52;11.83;;;8.57;;
13319;SDS011;59599;47.608;12.190;2022-12-18T17:37:18;11.10;;;7.37;;
13319;SDS011;59599;47.608;12.190;2022-12-18T17:39:44;15.80;;;9.07;;
13319;SDS011;59599;47.608;12.190;2022-12-18T17:42:10;10.07;;;6.60;;
13319;SDS011;59599;47.608;12.190;2022-12-18T17:44:36;8.73;;;5.80;;
13319;SDS011;59599;47.608;12.190;2022-12-18T17:47:02;8.63;;;5.67;;
13319;SDS011;59599;47.608;12.190;2022-12-18T17:49:29;11.70;;;6.60;;
13319;SDS011;59599;47.608;12.190;2022-12-18T17:51:55;10.37;;;6.67;;
13319;SDS011;59599;47.608;12.190;2022-12-18T17:54:21;14.43;;;6.53;;
13319;SDS011;59599;47.608;12.190;2022-12-18T17:56:47;12.83;;;7.57;;
13319;SDS011;59599;47.608;12.190;2022-12-18T17:59:13;13.23;;;7.20;;
13319;SDS011;59599;47.608;12.190;2022-12-18T18:01:38;11.03;;;6.93;;
13319;SDS011;59599;47.608;12.190;2022-12-18T18:04:04;10.97;;;6.60;;
13319;SDS011;59599;47.608;12.190;2022-12-18T18:06:31;10.97;;;6.37;;
13319;SDS011;59599;47.608;12.190;2022-12-18T18:08:57;9.43;;;6.33;;
13319;SDS011;59599;47.608;12.190;2022-12-18T18:11:23;8.70;;;5.57;;
13319;SDS011;59599;47.608;12.190;2022-12-18T18:14:26;8.43;;;6.03;;
13319;SDS011;59599;47.608;12.190;2022-12-18T18:16:51;10.80;;;5.77;;
13319;SDS011;59599;47.608;12.190;2022-12-18T18:19:18;9.87;;;6.07;;
13319;SDS011;59599;47.608;12.190;2022-12-18T18:21:46;11.57;;;5.70;;
13319;SDS011;59599;47.608;12.190;2022-12-18T18:24:14;11.33;;;5.33;;
13319;SDS011;59599;47.608;12.190;2022-12-18T18:26:41;7.30;;;4.83;;
13319;SDS011;59599;47.608;12.190;2022-12-18T18:29:07;4.97;;;3.73;;
13319;SDS011;59599;47.608;12.190;2022-12-18T18:31:33;11.43;;;7.30;;
13319;SDS011;59599;47.608;12.190;2022-12-18T18:34:00;10.57;;;6.90;;
13319;SDS011;59599;47.608;12.190;2022-12-18T18:36:27;11.90;;;8.67;;
13319;SDS011;59599;47.608;12.190;2022-12-18T18:38:53;11.53;;;7.70;;
13319;SDS011;59599;47.608;12.190;2022-12-18T18:41:18;10.43;;;7.30;;
13319;SDS011;59599;47.608;12.190;2022-12-18T18:43:46;9.63;;;6.80;;
13319;SDS011;59599;47.608;12.190;2022-12-18T18:46:12;9.43;;;6.60;;
13319;SDS011;59599;47.608;12.190;2022-12-18T18:48:39;8.73;;;5.87;;
13319;SDS011;59599;47.608;12.190;2022-12-18T18:51:10;7.87;;;5.80;;
13319;SDS011;59599;47.608;12.190;2022-12-18T18:53:37;9.43;;;6.13;;
13319;SDS011;59599;47.608;12.190;2022-12-18T18:56:04;8.37;;;5.87;;
13319;SDS011;59599;47.608;12.190;2022-12-18T18:58:30;9.77;;;6.17;;
13319;SDS011;59599;47.608;12.190;2022-12-18T19:01:15;9.30;;;6.83;;
13319;SDS011;59599;47.608;12.190;2022-12-18T19:03:42;8.37;;;6.10;;
13319;SDS011;59599;47.608;12.190;2022-12-18T19:06:09;8.93;;;6.30;;
13319;SDS011;59599;47.608;12.190;2022-12-18T19:08:36;10.03;;;6.20;;
13319;SDS011;59599;47.608;12.190;2022-12-18T19:11:04;8.53;;;5.70;;
13319;SDS011;59599;47.608;12.190;2022-12-18T19:13:51;11.50;;;6.40;;
13319;SDS011;59599;47.608;12.190;2022-12-18T19:16:17;10.37;;;6.63;;
13319;SDS011;59599;47.608;12.190;2022-12-18T19:18:42;12.27;;;7.10;;
13319;SDS011;59599;47.608;12.190;2022-12-18T19:21:09;8.70;;;6.43;;
13319;SDS011;59599;47.608;12.190;2022-12-18T19:23:35;12.30;;;7.20;;
13319;SDS011;59599;47.608;12.190;2022-12-18T19:26:04;12.23;;;6.63;;
13319;SDS011;59599;47.608;12.190;2022-12-18T19:28:32;17.17;;;7.63;;
13319;SDS011;59599;47.608;12.190;2022-12-18T19:30:58;14.63;;;7.07;;
13319;SDS011;59599;47.608;12.190;2022-12-18T19:33:25;10.87;;;6.00;;
13319;SDS011;59599;47.608;12.190;2022-12-18T19:35:51;9.50;;;5.90;;
13319;SDS011;59599;47.608;12.190;2022-12-18T19:38:17;8.53;;;6.03;;
13319;SDS011;59599;47.608;12.190;2022-12-18T19:40:44;9.60;;;6.07;;
13319;SDS011;59599;47.608;12.190;2022-12-18T19:43:10;11.10;;;7.00;;
13319;SDS011;59599;47.608;12.190;2022-12-18T19:45:36;8.93;;;6.53;;
13319;SDS011;59599;47.608;12.190;2022-12-18T19:48:03;9.13;;;6.13;;
13319;SDS011;59599;47.608;12.190;2022-12-18T19:50:29;9.80;;;6.53;;
13319;SDS011;59599;47.608;12.190;2022-12-18T19:52:55;10.47;;;6.97;;
13319;SDS011;59599;47.608;12.190;2022-12-18T19:55:21;10.37;;;6.50;;
13319;SDS011;59599;47.608;12.190;2022-12-18T19:57:47;11.23;;;6.63;;
13319;SDS011;59599;47.608;12.190;2022-12-18T20:00:13;11.70;;;6.83;;
13319;SDS011;59599;47.608;12.190;2022-12-18T20:02:39;8.60;;;6.10;;
13319;SDS011;59599;47.608;12.190;2022-12-18T20:05:06;9.73;;;6.67;;
13319;SDS011;59599;47.608;12.190;2022-12-18T20:07:33;13.63;;;7.03;;
13319;SDS011;59599;47.608;12.190;2022-12-18T20:09:58;10.97;;;6.10;;
13319;SDS011;59599;47.608;12.190;2022-12-18T20:12:24;15.87;;;8.33;;
13319;SDS011;59599;47.608;12.190;2022-12-18T20:14:50;13.27;;;6.73;;
13319;SDS011;59599;47.608;12.190;2022-12-18T20:17:16;10.40;;;6.93;;
13319;SDS011;59599;47.608;12.190;2022-12-18T20:19:42;7.70;;;5.70;;
13319;SDS011;59599;47.608;12.190;2022-12-18T20:22:08;9.20;;;5.63;;
13319;SDS011;59599;47.608;12.190;2022-12-18T20:24:34;11.00;;;5.57;;
13319;SDS011;59599;47.608;12.190;2022-12-18T20:27:00;8.53;;;5.20;;
13319;SDS011;59599;47.608;12.190;2022-12-18T20:29:26;6.90;;;5.03;;
13319;SDS011;59599;47.608;12.190;2022-12-18T20:31:52;8.80;;;5.30;;
13319;SDS011;59599;47.608;12.190;2022-12-18T20:34:18;8.10;;;6.13;;
13319;SDS011;59599;47.608;12.190;2022-12-18T20:36:44;7.33;;;5.43;;
13319;SDS011;59599;47.608;12.190;2022-12-18T20:39:10;11.47;;;5.97;;
13319;SDS011;59599;47.608;12.190;2022-12-18T20:41:36;13.03;;;6.50;;
13319;SDS011;59599;47.608;12.190;2022-12-18T20:44:03;8.00;;;5.60;;
13319;SDS011;59599;47.608;12.190;2022-12-18T20:46:29;8.43;;;5.00;;
13319;SDS011;59599;47.608;12.190;2022-12-18T20:48:55;7.73;;;5.03;;
13319;SDS011;59599;47.608;12.190;2022-12-18T20:51:21;9.87;;;6.87;;
13319;SDS011;59599;47.608;12.190;2022-12-18T20:53:47;10.23;;;5.93;;
13319;SDS011;59599;47.608;12.190;2022-12-18T20:56:18;10.03;;;6.33;;
13319;SDS011;59599;47.608;12.190;2022-12-18T20:58:45;8.97;;;5.70;;
13319;SDS011;59599;47.608;12.190;2022-12-18T21:01:12;10.53;;;6.23;;
13319;SDS011;59599;47.608;12.190;2022-12-18T21:03:39;7.87;;;5.53;;
13319;SDS011;59599;47.608;12.190;2022-12-18T21:06:05;9.37;;;6.47;;
13319;SDS011;59599;47.608;12.190;2022-12-18T21:08:31;10.53;;;5.87;;
13319;SDS011;59599;47.608;12.190;2022-12-18T21:14:01;9.30;;;6.20;;
13319;SDS011;59599;47.608;12.190;2022-12-18T21:16:27;9.60;;;6.47;;
13319;SDS011;59599;47.608;12.190;2022-12-18T21:18:53;10.23;;;5.73;;
13319;SDS011;59599;47.608;12.190;2022-12-18T21:21:19;13.63;;;5.97;;
13319;SDS011;59599;47.608;12.190;2022-12-18T21:23:45;9.13;;;5.73;;
13319;SDS011;59599;47.608;12.190;2022-12-18T21:26:18;7.93;;;5.63;;
13319;SDS011;59599;47.608;12.190;2022-12-18T21:28:46;10.07;;;5.77;;
13319;SDS011;59599;47.608;12.190;2022-12-18T21:31:12;9.70;;;5.53;;